sensor_id;sensor_type;location;lat;lon;timestamp;pressure;altitude;pressure_sealevel;temperature;humidity
48778;BME280;34578;0.000;0.000;2022-08-19T00:00:50;96342.00;;;22.69;53.49
48778;BME280;34578;0.000;0.000;2022-08-19T00:05:50;96336.28;;;22.59;53.69
48778;BME280;34578;0.000;0.000;2022-08-19T00:10:50;96340.59;;;22.56;53.63
48778;BME280;34578;0.000;0.000;2022-08-19T00:15:51;96338.06;;;22.54;53.66
48778;BME280;34578;0.000;0.000;2022-08-19T00:20:51;96323.69;;;22.50;53.67
48778;BME280;34578;0.000;0.000;2022-08-19T00:25:52;96330.50;;;22.51;53.94
48778;BME280;34578;0.000;0.000;2022-08-19T00:30:53;96339.84;;;22.51;53.72
48778;BME280;34578;0.000;0.000;2022-08-19T00:35:55;96331.88;;;22.64;53.89
48778;BME280;34578;0.000;0.000;2022-08-19T00:40:55;96339.22;;;22.78;53.81
48778;BME280;34578;0.000;0.000;2022-08-19T00:45:56;96315.03;;;22.57;53.54
48778;BME280;34578;0.000;0.000;2022-08-19T00:50:57;96326.88;;;22.60;53.65
48778;BME280;34578;0.000;0.000;2022-08-19T00:55:59;96327.00;;;22.54;53.69
48778;BME280;34578;0.000;0.000;2022-08-19T01:01:03;96316.09;;;22.49;53.86
48778;BME280;34578;0.000;0.000;2022-08-19T01:06:04;96333.09;;;22.48;53.79
48778;BME280;34578;0.000;0.000;2022-08-19T01:11:06;96332.22;;;22.49;53.84
48778;BME280;34578;0.000;0.000;2022-08-19T01:16:11;96332.22;;;22.49;53.76
48778;BME280;34578;0.000;0.000;2022-08-19T01:21:20;96324.31;;;22.61;54.10
48778;BME280;34578;0.000;0.000;2022-08-19T01:26:24;96318.03;;;22.74;53.60
48778;BME280;34578;0.000;0.000;2022-08-19T01:31:27;96320.84;;;22.64;53.80
48778;BME280;34578;0.000;0.000;2022-08-19T01:36:40;96319.31;;;22.57;53.70
48778;BME280;34578;0.000;0.000;2022-08-19T01:41:42;96314.31;;;22.52;53.74
48778;BME280;34578;0.000;0.000;2022-08-19T01:46:43;96300.72;;;22.50;53.69
48778;BME280;34578;0.000;0.000;2022-08-19T01:51:44;96295.00;;;22.39;53.91
48778;BME280;34578;0.000;0.000;2022-08-19T01:56:44;96310.94;;;22.50;53.90
48778;BME280;34578;0.000;0.000;2022-08-19T02:01:44;96307.63;;;22.47;53.92
48778;BME280;34578;0.000;0.000;2022-08-19T02:06:45;96309.72;;;22.66;54.06
48778;BME280;34578;0.000;0.000;2022-08-19T02:11:45;96306.09;;;22.76;53.48
48778;BME280;34578;0.000;0.000;2022-08-19T02:16:45;96290.41;;;22.56;53.72
48778;BME280;34578;0.000;0.000;2022-08-19T02:21:46;96296.41;;;22.54;53.69
48778;BME280;34578;0.000;0.000;2022-08-19T02:26:46;96297.34;;;22.51;53.75
48778;BME280;34578;0.000;0.000;2022-08-19T02:31:47;96299.91;;;22.50;53.73
48778;BME280;34578;0.000;0.000;2022-08-19T02:36:48;96302.47;;;22.48;53.79
48778;BME280;34578;0.000;0.000;2022-08-19T02:41:48;96289.78;;;22.47;53.86
48778;BME280;34578;0.000;0.000;2022-08-19T02:46:49;96291.47;;;22.46;53.57
48778;BME280;34578;0.000;0.000;2022-08-19T02:51:50;96294.41;;;22.66;54.02
48778;BME280;34578;0.000;0.000;2022-08-19T02:56:50;96291.69;;;22.74;53.54
48778;BME280;34578;0.000;0.000;2022-08-19T03:01:50;96297.94;;;22.61;53.64
48778;BME280;34578;0.000;0.000;2022-08-19T03:06:51;96309.16;;;22.54;53.79
48778;BME280;34578;0.000;0.000;2022-08-19T03:11:52;96318.56;;;22.52;53.76
48778;BME280;34578;0.000;0.000;2022-08-19T03:16:52;96320.31;;;22.50;53.63
48778;BME280;34578;0.000;0.000;2022-08-19T03:21:53;96322.88;;;22.48;53.94
48778;BME280;34578;0.000;0.000;2022-08-19T03:26:54;96322.88;;;22.48;53.88
48778;BME280;34578;0.000;0.000;2022-08-19T03:31:59;96312.75;;;22.47;53.92
48778;BME280;34578;0.000;0.000;2022-08-19T03:37:04;96315.69;;;22.67;54.04
48778;BME280;34578;0.000;0.000;2022-08-19T03:42:06;96336.78;;;22.73;53.58
48778;BME280;34578;0.000;0.000;2022-08-19T03:47:06;96332.91;;;22.57;53.65
48778;BME280;34578;0.000;0.000;2022-08-19T03:52:06;96338.94;;;22.53;53.76
48778;BME280;34578;0.000;0.000;2022-08-19T03:57:07;96347.50;;;22.51;53.78
48778;BME280;34578;0.000;0.000;2022-08-19T04:02:11;96341.63;;;22.47;53.78
48778;BME280;34578;0.000;0.000;2022-08-19T04:07:13;96354.38;;;22.47;53.87
48778;BME280;34578;0.000;0.000;2022-08-19T04:12:16;96352.72;;;22.46;53.94
48778;BME280;34578;0.000;0.000;2022-08-19T04:17:16;96350.16;;;22.46;54.01
48778;BME280;34578;0.000;0.000;2022-08-19T04:22:16;96353.09;;;22.66;54.01
48778;BME280;34578;0.000;0.000;2022-08-19T04:27:18;96347.06;;;22.72;53.61
48778;BME280;34578;0.000;0.000;2022-08-19T04:32:18;96337.19;;;22.57;53.78
48778;BME280;34578;0.000;0.000;2022-08-19T04:37:19;96333.88;;;22.52;53.66
48778;BME280;34578;0.000;0.000;2022-08-19T04:42:19;96336.53;;;22.47;53.95
48778;BME280;34578;0.000;0.000;2022-08-19T04:47:40;96345.84;;;22.48;53.89
48778;BME280;34578;0.000;0.000;2022-08-19T04:52:40;96348.47;;;22.47;53.30
48778;BME280;34578;0.000;0.000;2022-08-19T04:57:42;96356.94;;;22.46;53.89
48778;BME280;34578;0.000;0.000;2022-08-19T05:02:43;96362.03;;;22.47;54.21
48778;BME280;34578;0.000;0.000;2022-08-19T05:07:43;96371.78;;;22.68;54.34
48778;BME280;34578;0.000;0.000;2022-08-19T05:12:43;96381.13;;;22.69;53.68
48778;BME280;34578;0.000;0.000;2022-08-19T05:17:44;96383.09;;;22.57;53.79
48778;BME280;34578;0.000;0.000;2022-08-19T05:23:04;96385.78;;;22.51;53.82
48778;BME280;34578;0.000;0.000;2022-08-19T05:28:04;96384.13;;;22.48;53.89
48778;BME280;34578;0.000;0.000;2022-08-19T05:33:05;96379.91;;;22.46;53.98
48778;BME280;34578;0.000;0.000;2022-08-19T05:38:07;96382.53;;;22.44;53.94
48778;BME280;34578;0.000;0.000;2022-08-19T05:43:08;96395.28;;;22.44;53.89
48778;BME280;34578;0.000;0.000;2022-08-19T05:48:10;96390.94;;;22.48;54.32
48778;BME280;34578;0.000;0.000;2022-08-19T05:53:11;96379.56;;;22.64;53.90
48778;BME280;34578;0.000;0.000;2022-08-19T05:58:12;96403.31;;;22.66;53.82
48778;BME280;34578;0.000;0.000;2022-08-19T06:03:12;96409.53;;;22.54;53.97
48778;BME280;34578;0.000;0.000;2022-08-19T06:08:13;96406.22;;;22.49;53.77
48778;BME280;34578;0.000;0.000;2022-08-19T06:13:13;96413.06;;;22.47;53.94
48778;BME280;34578;0.000;0.000;2022-08-19T06:18:14;96418.19;;;22.46;53.88
48778;BME280;34578;0.000;0.000;2022-08-19T06:23:15;96413.97;;;22.45;53.84
48778;BME280;34578;0.000;0.000;2022-08-19T06:28:16;96419.94;;;22.44;53.98
48778;BME280;34578;0.000;0.000;2022-08-19T06:33:16;96431.78;;;22.48;54.43
48778;BME280;34578;0.000;0.000;2022-08-19T06:38:17;96427.94;;;22.68;54.43
48778;BME280;34578;0.000;0.000;2022-08-19T06:43:17;96432.22;;;22.66;53.62
48778;BME280;34578;0.000;0.000;2022-08-19T06:48:18;96425.69;;;22.55;53.83
48778;BME280;34578;0.000;0.000;2022-08-19T06:53:18;96397.13;;;22.35;53.75
48778;BME280;34578;0.000;0.000;2022-08-19T06:58:19;96419.00;;;22.48;53.99
48778;BME280;34578;0.000;0.000;2022-08-19T07:03:19;96417.34;;;22.47;53.96
48778;BME280;34578;0.000;0.000;2022-08-19T07:08:21;96420.72;;;22.46;54.00
48778;BME280;34578;0.000;0.000;2022-08-19T07:13:21;96430.13;;;22.45;53.93
48778;BME280;34578;0.000;0.000;2022-08-19T07:18:22;96435.94;;;22.50;54.33
48778;BME280;34578;0.000;0.000;2022-08-19T07:23:22;96436.47;;;22.67;54.67
48778;BME280;34578;0.000;0.000;2022-08-19T07:28:23;96439.06;;;22.66;53.78
48778;BME280;34578;0.000;0.000;2022-08-19T07:33:24;96449.47;;;22.55;53.79
48778;BME280;34578;0.000;0.000;2022-08-19T07:38:24;96446.16;;;22.50;53.82
48778;BME280;34578;0.000;0.000;2022-08-19T07:43:24;96441.97;;;22.48;53.88
48778;BME280;34578;0.000;0.000;2022-08-19T07:48:27;96443.78;;;22.41;53.80
48778;BME280;34578;0.000;0.000;2022-08-19T07:53:30;96447.09;;;22.46;54.01
48778;BME280;34578;0.000;0.000;2022-08-19T07:58:34;96445.44;;;22.45;54.08
48778;BME280;34578;0.000;0.000;2022-08-19T08:03:35;96458.91;;;22.50;54.15
48778;BME280;34578;0.000;0.000;2022-08-19T08:08:55;96461.91;;;22.70;54.33
48778;BME280;34578;0.000;0.000;2022-08-19T08:14:18;96475.66;;;22.63;53.84
48778;BME280;34578;0.000;0.000;2022-08-19T08:19:21;96480.09;;;22.54;53.90
48778;BME280;34578;0.000;0.000;2022-08-19T08:24:22;96477.66;;;22.49;53.90
48778;BME280;34578;0.000;0.000;2022-08-19T08:29:22;96484.50;;;22.47;53.89
48778;BME280;34578;0.000;0.000;2022-08-19T08:34:22;96481.16;;;22.45;54.01
48778;BME280;34578;0.000;0.000;2022-08-19T08:39:23;96488.78;;;22.45;53.86
48778;BME280;34578;0.000;0.000;2022-08-19T08:49:41;96504.81;;;22.53;54.18
48778;BME280;34578;0.000;0.000;2022-08-19T08:54:46;96501.91;;;22.70;54.03
48778;BME280;34578;0.000;0.000;2022-08-19T08:59:48;96510.53;;;22.63;53.73
48778;BME280;34578;0.000;0.000;2022-08-19T09:04:51;96520.09;;;22.53;53.91
48778;BME280;34578;0.000;0.000;2022-08-19T09:10:02;96510.91;;;22.45;53.80
48778;BME280;34578;0.000;0.000;2022-08-19T09:15:06;96521.09;;;22.45;53.91
48778;BME280;34578;0.000;0.000;2022-08-19T09:20:23;96527.06;;;22.45;53.84
48778;BME280;34578;0.000;0.000;2022-08-19T09:25:23;96533.03;;;22.44;53.99
48778;BME280;34578;0.000;0.000;2022-08-19T09:30:27;96542.38;;;22.44;54.03
48778;BME280;34578;0.000;0.000;2022-08-19T09:35:29;96536.22;;;22.57;54.11
48778;BME280;34578;0.000;0.000;2022-08-19T09:40:30;96528.28;;;22.70;53.93
48778;BME280;34578;0.000;0.000;2022-08-19T09:45:31;96531.03;;;22.60;53.84
48778;BME280;34578;0.000;0.000;2022-08-19T09:50:31;96536.31;;;22.51;53.74
48778;BME280;34578;0.000;0.000;2022-08-19T09:55:34;96549.09;;;22.49;54.10
48778;BME280;34578;0.000;0.000;2022-08-19T10:00:37;96541.47;;;22.48;54.03
48778;BME280;34578;0.000;0.000;2022-08-19T10:05:38;96544.06;;;22.45;53.54
48778;BME280;34578;0.000;0.000;2022-08-19T10:10:50;96550.84;;;22.47;53.79
48778;BME280;34578;0.000;0.000;2022-08-19T10:15:54;96552.50;;;22.48;54.03
48778;BME280;34578;0.000;0.000;2022-08-19T10:21:05;96553.97;;;22.61;54.10
48778;BME280;34578;0.000;0.000;2022-08-19T10:26:08;96548.72;;;22.69;53.77
48778;BME280;34578;0.000;0.000;2022-08-19T10:31:19;96542.13;;;22.57;53.74
48778;BME280;34578;0.000;0.000;2022-08-19T10:36:21;96537.16;;;22.51;53.93
48778;BME280;34578;0.000;0.000;2022-08-19T10:41:24;96550.81;;;22.49;53.98
48778;BME280;34578;0.000;0.000;2022-08-19T10:46:26;96550.84;;;22.47;54.07
48778;BME280;34578;0.000;0.000;2022-08-19T10:51:27;96549.97;;;22.48;53.91
48778;BME280;34578;0.000;0.000;2022-08-19T10:56:47;96560.16;;;22.48;53.84
48778;BME280;34578;0.000;0.000;2022-08-19T11:01:54;96564.47;;;22.46;54.08
48778;BME280;34578;0.000;0.000;2022-08-19T11:06:55;96557.34;;;22.63;53.90
48778;BME280;34578;0.000;0.000;2022-08-19T11:11:55;96558.91;;;22.70;53.35
48778;BME280;34578;0.000;0.000;2022-08-19T11:16:56;96555.75;;;22.56;53.77
48778;BME280;34578;0.000;0.000;2022-08-19T11:21:56;96557.56;;;22.51;54.04
48778;BME280;34578;0.000;0.000;2022-08-19T11:27:07;96566.13;;;22.47;54.21
48778;BME280;34578;0.000;0.000;2022-08-19T11:32:09;96561.09;;;22.44;54.03
48778;BME280;34578;0.000;0.000;2022-08-19T11:37:10;96556.91;;;22.42;53.72
48778;BME280;34578;0.000;0.000;2022-08-19T11:42:10;96562.81;;;22.44;54.04
48778;BME280;34578;0.000;0.000;2022-08-19T11:47:29;96561.06;;;22.46;54.06
48778;BME280;34578;0.000;0.000;2022-08-19T11:52:30;96554.78;;;22.63;53.41
48778;BME280;34578;0.000;0.000;2022-08-19T11:57:31;96552.16;;;22.68;53.43
48778;BME280;34578;0.000;0.000;2022-08-19T12:02:31;96559.19;;;22.55;53.81
48778;BME280;34578;0.000;0.000;2022-08-19T12:07:33;96562.72;;;22.48;53.81
48778;BME280;34578;0.000;0.000;2022-08-19T12:12:33;96550.84;;;22.47;53.83
48778;BME280;34578;0.000;0.000;2022-08-19T12:17:34;96545.78;;;22.44;53.84
48778;BME280;34578;0.000;0.000;2022-08-19T12:22:35;96546.69;;;22.42;53.88
48778;BME280;34578;0.000;0.000;2022-08-19T12:27:36;96543.25;;;22.43;54.03
48778;BME280;34578;0.000;0.000;2022-08-19T12:32:37;96547.47;;;22.45;54.11
48778;BME280;34578;0.000;0.000;2022-08-19T12:37:38;96556.47;;;22.63;54.00
48778;BME280;34578;0.000;0.000;2022-08-19T12:42:39;96558.91;;;22.70;53.39
48778;BME280;34578;0.000;0.000;2022-08-19T12:47:42;96549.84;;;22.56;53.76
48778;BME280;34578;0.000;0.000;2022-08-19T12:52:43;96540.56;;;22.50;53.82
48778;BME280;34578;0.000;0.000;2022-08-19T12:57:44;96544.84;;;22.48;53.96
48778;BME280;34578;0.000;0.000;2022-08-19T13:02:45;96541.50;;;22.45;53.88
48778;BME280;34578;0.000;0.000;2022-08-19T13:07:47;96547.53;;;22.42;54.00
48778;BME280;34578;0.000;0.000;2022-08-19T13:12:49;96544.13;;;22.43;54.09
48778;BME280;34578;0.000;0.000;2022-08-19T13:17:52;96540.69;;;22.44;54.04
48778;BME280;34578;0.000;0.000;2022-08-19T13:22:54;96535.25;;;22.62;53.98
48778;BME280;34578;0.000;0.000;2022-08-19T13:27:54;96535.09;;;22.70;53.39
48778;BME280;34578;0.000;0.000;2022-08-19T13:32:55;96536.13;;;22.60;53.64
48778;BME280;34578;0.000;0.000;2022-08-19T13:38:11;96519.31;;;22.51;53.83
48778;BME280;34578;0.000;0.000;2022-08-19T13:43:12;96521.91;;;22.48;53.92
48778;BME280;34578;0.000;0.000;2022-08-19T13:48:12;96525.31;;;22.47;53.67
48778;BME280;34578;0.000;0.000;2022-08-19T13:53:12;96513.44;;;22.46;54.04
48778;BME280;34578;0.000;0.000;2022-08-19T13:58:13;96514.28;;;22.47;53.91
48778;BME280;34578;0.000;0.000;2022-08-19T14:03:13;96516.00;;;22.45;54.08
48778;BME280;34578;0.000;0.000;2022-08-19T14:08:14;96520.72;;;22.66;54.21
48778;BME280;34578;0.000;0.000;2022-08-19T14:13:17;96523.09;;;22.73;53.76
48778;BME280;34578;0.000;0.000;2022-08-19T14:18:18;96519.75;;;22.71;53.82
48778;BME280;34578;0.000;0.000;2022-08-19T14:23:18;96514.72;;;22.68;53.81
48778;BME280;34578;0.000;0.000;2022-08-19T14:28:20;96518.88;;;22.72;53.94
48778;BME280;34578;0.000;0.000;2022-08-19T14:33:20;96528.22;;;22.73;53.91
48778;BME280;34578;0.000;0.000;2022-08-19T14:38:20;96525.66;;;22.73;53.99
48778;BME280;34578;0.000;0.000;2022-08-19T14:43:21;96523.09;;;22.73;54.05
48778;BME280;34578;0.000;0.000;2022-08-19T14:48:22;96532.44;;;22.74;53.98
48778;BME280;34578;0.000;0.000;2022-08-19T14:53:22;96539.09;;;22.83;53.97
48778;BME280;34578;0.000;0.000;2022-08-19T14:58:22;96529.69;;;22.85;53.32
48778;BME280;34578;0.000;0.000;2022-08-19T15:03:23;96538.31;;;22.79;53.77
48778;BME280;34578;0.000;0.000;2022-08-19T15:08:24;96545.16;;;22.77;53.90
48778;BME280;34578;0.000;0.000;2022-08-19T15:13:26;96546.84;;;22.77;53.85
48778;BME280;34578;0.000;0.000;2022-08-19T15:18:27;96559.63;;;22.77;53.94
48778;BME280;34578;0.000;0.000;2022-08-19T15:23:27;96556.25;;;22.76;53.96
48778;BME280;34578;0.000;0.000;2022-08-19T15:28:28;96563.06;;;22.76;53.95
48778;BME280;34578;0.000;0.000;2022-08-19T15:33:34;96554.53;;;22.75;53.99
48778;BME280;34578;0.000;0.000;2022-08-19T15:38:38;96560.34;;;22.83;53.90
48778;BME280;34578;0.000;0.000;2022-08-19T15:43:41;96551.88;;;22.81;53.10
48778;BME280;34578;0.000;0.000;2022-08-19T15:48:41;96559.88;;;22.65;53.75
48778;BME280;34578;0.000;0.000;2022-08-19T15:53:42;96559.19;;;22.55;53.83
48778;BME280;34578;0.000;0.000;2022-08-19T15:58:43;96551.63;;;22.51;53.90
48778;BME280;34578;0.000;0.000;2022-08-19T16:04:02;96551.69;;;22.48;53.84
48778;BME280;34578;0.000;0.000;2022-08-19T16:09:23;96549.16;;;22.45;54.03
48778;BME280;34578;0.000;0.000;2022-08-19T16:14:24;96554.31;;;22.43;54.14
48778;BME280;34578;0.000;0.000;2022-08-19T16:19:25;96550.03;;;22.44;54.21
48778;BME280;34578;0.000;0.000;2022-08-19T16:24:27;96553.91;;;22.64;53.82
48778;BME280;34578;0.000;0.000;2022-08-19T16:29:28;96551.28;;;22.69;53.61
48778;BME280;34578;0.000;0.000;2022-08-19T16:34:29;96546.50;;;22.52;53.78
48778;BME280;34578;0.000;0.000;2022-08-19T16:39:29;96549.09;;;22.49;53.95
48778;BME280;34578;0.000;0.000;2022-08-19T16:44:30;96550.91;;;22.44;53.97
48778;BME280;34578;0.000;0.000;2022-08-19T16:49:31;96557.75;;;22.42;54.06
48778;BME280;34578;0.000;0.000;2022-08-19T16:54:31;96557.75;;;22.42;54.07
48778;BME280;34578;0.000;0.000;2022-08-19T16:59:33;96552.66;;;22.42;54.14
48778;BME280;34578;0.000;0.000;2022-08-19T17:04:33;96555.19;;;22.42;54.22
48778;BME280;34578;0.000;0.000;2022-08-19T17:09:34;96559.00;;;22.64;53.93
48778;BME280;34578;0.000;0.000;2022-08-19T17:14:34;96558.13;;;22.67;53.76
48778;BME280;34578;0.000;0.000;2022-08-19T17:19:34;96564.28;;;22.55;53.90
48778;BME280;34578;0.000;0.000;2022-08-19T17:24:35;96557.63;;;22.48;53.85
48778;BME280;34578;0.000;0.000;2022-08-19T17:29:37;96563.59;;;22.46;53.87
48778;BME280;34578;0.000;0.000;2022-08-19T17:34:37;96561.09;;;22.44;53.91
48778;BME280;34578;0.000;0.000;2022-08-19T17:39:38;96557.75;;;22.42;54.08
48778;BME280;34578;0.000;0.000;2022-08-19T17:44:38;96560.31;;;22.42;54.05
48778;BME280;34578;0.000;0.000;2022-08-19T17:49:39;96565.41;;;22.42;54.67
48778;BME280;34578;0.000;0.000;2022-08-19T17:54:40;96568.41;;;22.64;53.90
48778;BME280;34578;0.000;0.000;2022-08-19T17:59:40;96575.13;;;22.68;53.79
48778;BME280;34578;0.000;0.000;2022-08-19T18:04:41;96574.50;;;22.54;53.70
48778;BME280;34578;0.000;0.000;2022-08-19T18:09:41;96582.31;;;22.48;53.96
48778;BME280;34578;0.000;0.000;2022-08-19T18:14:41;96591.72;;;22.44;54.09
48778;BME280;34578;0.000;0.000;2022-08-19T18:19:42;96598.50;;;22.45;53.97
48778;BME280;34578;0.000;0.000;2022-08-19T18:24:42;96612.06;;;22.47;53.82
48778;BME280;34578;0.000;0.000;2022-08-19T18:29:43;96605.28;;;22.46;54.08
48778;BME280;34578;0.000;0.000;2022-08-19T18:34:44;96604.59;;;22.35;54.27
48778;BME280;34578;0.000;0.000;2022-08-19T18:39:45;96618.59;;;22.63;54.28
48778;BME280;34578;0.000;0.000;2022-08-19T18:45:05;96619.38;;;22.67;53.47
48778;BME280;34578;0.000;0.000;2022-08-19T18:50:24;96627.28;;;22.52;54.03
48778;BME280;34578;0.000;0.000;2022-08-19T18:55:24;96635.03;;;22.46;54.01
48778;BME280;34578;0.000;0.000;2022-08-19T19:00:29;96640.22;;;22.43;54.10
48778;BME280;34578;0.000;0.000;2022-08-19T19:05:29;96644.44;;;22.44;54.22
48778;BME280;34578;0.000;0.000;2022-08-19T19:10:30;96654.66;;;22.44;54.03
48778;BME280;34578;0.000;0.000;2022-08-19T19:15:30;96657.19;;;22.44;54.13
48778;BME280;34578;0.000;0.000;2022-08-19T19:20:31;96662.28;;;22.47;54.60
48778;BME280;34578;0.000;0.000;2022-08-19T19:25:32;96662.78;;;22.65;54.05
48778;BME280;34578;0.000;0.000;2022-08-19T19:30:33;96662.78;;;22.65;53.79
48778;BME280;34578;0.000;0.000;2022-08-19T19:35:33;96665.53;;;22.55;53.94
48778;BME280;34578;0.000;0.000;2022-08-19T19:40:34;96668.13;;;22.50;54.05
48778;BME280;34578;0.000;0.000;2022-08-19T19:45:34;96674.97;;;22.48;54.04
48778;BME280;34578;0.000;0.000;2022-08-19T19:50:35;96678.38;;;22.49;53.95
48778;BME280;34578;0.000;0.000;2022-08-19T19:55:36;96684.38;;;22.48;54.10
48778;BME280;34578;0.000;0.000;2022-08-19T20:00:36;96686.91;;;22.48;54.36
48778;BME280;34578;0.000;0.000;2022-08-19T20:05:37;96693.72;;;22.47;54.50
48778;BME280;34578;0.000;0.000;2022-08-19T20:10:39;96698.50;;;22.67;54.14
48778;BME280;34578;0.000;0.000;2022-08-19T20:15:40;96696.81;;;22.67;53.84
48778;BME280;34578;0.000;0.000;2022-08-19T20:20:43;96702.03;;;22.58;53.98
48778;BME280;34578;0.000;0.000;2022-08-19T20:25:45;96707.22;;;22.54;53.95
48778;BME280;34578;0.000;0.000;2022-08-19T20:30:45;96719.97;;;22.54;54.18
48778;BME280;34578;0.000;0.000;2022-08-19T20:35:46;96721.72;;;22.52;54.13
48778;BME280;34578;0.000;0.000;2022-08-19T20:40:46;96732.78;;;22.49;54.10
48778;BME280;34578;0.000;0.000;2022-08-19T20:45:47;96736.22;;;22.48;54.09
48778;BME280;34578;0.000;0.000;2022-08-19T20:50:47;96735.41;;;22.48;54.36
48778;BME280;34578;0.000;0.000;2022-08-19T20:55:48;96730.00;;;22.66;54.17
48778;BME280;34578;0.000;0.000;2022-08-19T21:00:51;96731.69;;;22.67;53.85
48778;BME280;34578;0.000;0.000;2022-08-19T21:05:53;96748.03;;;22.55;54.07
48778;BME280;34578;0.000;0.000;2022-08-19T21:10:55;96749.84;;;22.47;53.72
48778;BME280;34578;0.000;0.000;2022-08-19T21:15:56;96750.69;;;22.48;54.03
48778;BME280;34578;0.000;0.000;2022-08-19T21:20:56;96746.47;;;22.45;54.09
48778;BME280;34578;0.000;0.000;2022-08-19T21:25:58;96734.59;;;22.44;54.24
48778;BME280;34578;0.000;0.000;2022-08-19T21:30:59;96737.19;;;22.40;54.09
48778;BME280;34578;0.000;0.000;2022-08-19T21:35:59;96741.38;;;22.45;54.48
48778;BME280;34578;0.000;0.000;2022-08-19T21:41:01;96741.94;;;22.64;54.43
48778;BME280;34578;0.000;0.000;2022-08-19T21:46:01;96747.88;;;22.64;53.95
48778;BME280;34578;0.000;0.000;2022-08-19T21:51:02;96748.91;;;22.53;54.08
48778;BME280;34578;0.000;0.000;2022-08-19T21:56:03;96751.53;;;22.48;54.14
48778;BME280;34578;0.000;0.000;2022-08-19T22:01:05;96762.59;;;22.47;54.13
48778;BME280;34578;0.000;0.000;2022-08-19T22:06:07;96758.38;;;22.46;54.25
48778;BME280;34578;0.000;0.000;2022-08-19T22:11:08;96766.91;;;22.45;54.25
48778;BME280;34578;0.000;0.000;2022-08-19T22:16:08;96760.09;;;22.44;54.25
48778;BME280;34578;0.000;0.000;2022-08-19T22:21:09;96764.34;;;22.44;54.51
48778;BME280;34578;0.000;0.000;2022-08-19T22:26:11;96756.47;;;22.60;54.64
48778;BME280;34578;0.000;0.000;2022-08-19T22:31:12;96754.66;;;22.65;53.67
48778;BME280;34578;0.000;0.000;2022-08-19T22:36:12;96748.91;;;22.54;54.05
48778;BME280;34578;0.000;0.000;2022-08-19T22:41:13;96752.38;;;22.49;54.08
48778;BME280;34578;0.000;0.000;2022-08-19T22:46:18;96755.00;;;22.44;54.20
48778;BME280;34578;0.000;0.000;2022-08-19T22:51:19;96758.44;;;22.43;54.16
48778;BME280;34578;0.000;0.000;2022-08-19T22:56:38;96746.59;;;22.35;54.20
48778;BME280;34578;0.000;0.000;2022-08-19T23:01:38;96750.00;;;22.35;54.21
48778;BME280;34578;0.000;0.000;2022-08-19T23:06:40;96750.84;;;22.36;54.10
48778;BME280;34578;0.000;0.000;2022-08-19T23:11:41;96763.19;;;22.63;54.68
48778;BME280;34578;0.000;0.000;2022-08-19T23:16:41;96752.16;;;22.62;53.90
48778;BME280;34578;0.000;0.000;2022-08-19T23:21:42;96749.78;;;22.50;53.94
48778;BME280;34578;0.000;0.000;2022-08-19T23:26:42;96737.97;;;22.46;54.09
48778;BME280;34578;0.000;0.000;2022-08-19T23:32:03;96727.81;;;22.43;54.14
48778;BME280;34578;0.000;0.000;2022-08-19T23:37:06;96735.47;;;22.42;54.13
48778;BME280;34578;0.000;0.000;2022-08-19T23:42:10;96736.34;;;22.41;54.24
48778;BME280;34578;0.000;0.000;2022-08-19T23:47:11;96731.22;;;22.39;54.28
48778;BME280;34578;0.000;0.000;2022-08-19T23:52:11;96730.38;;;22.42;54.63
48778;BME280;34578;0.000;0.000;2022-08-19T23:57:11;96720.66;;;22.63;54.47
